Time;durP1;ratioP1;P1;durP2;ratioP2;P2;SDS_P1;SDS_P2;PMS_P1;PMS_P2;Temp;Humidity;BMP_temperature;BMP_pressure;BME280_temperature;BME280_humidity;BME280_pressure;Samples;Min_cycle;Max_cycle;Signal;HPM_P1;HPM_P2
2022/01/25 00:26:37;;;;;;;56.92;32.38;;;;;;;;;;5016248;28;20041;-86
2022/01/25 00:29:09;;;;;;;56.33;31.35;;;;;;;;;;5032684;28;20444;-86
2022/01/25 00:31:37;;;;;;;54.60;31.48;;;;;;;;;;5016019;28;20048;-87
2022/01/25 00:34:03;;;;;;;57.28;31.73;;;;;;;;;;5015876;28;20491;-86
2022/01/25 00:36:29;;;;;;;54.83;31.63;;;;;;;;;;5015894;28;20041;-87
2022/01/25 00:38:56;;;;;;;55.58;31.27;;;;;;;;;;5015913;28;20073;-87
2022/01/25 00:41:24;;;;;;;54.22;31.02;;;;;;;;;;5015768;28;20037;-87
2022/01/25 00:43:51;;;;;;;55.17;31.52;;;;;;;;;;5015484;28;20103;-86
2022/01/25 00:46:20;;;;;;;57.10;32.28;;;;;;;;;;5015589;28;20128;-86
2022/01/25 00:48:49;;;;;;;55.45;31.48;;;;;;;;;;5032616;28;20510;-87
2022/01/25 00:54:02;;;;;;;55.55;32.40;;;;;;;;;;5015416;28;20381;-86
2022/01/25 00:56:31;;;;;;;54.72;32.95;;;;;;;;;;5015226;28;20029;-86
2022/01/25 00:58:57;;;;;;;58.40;34.50;;;;;;;;;;5032244;28;20051;-87
2022/01/25 01:01:24;;;;;;;55.28;32.70;;;;;;;;;;5015348;28;20037;-87
2022/01/25 01:03:50;;;;;;;56.95;31.48;;;;;;;;;;5017819;28;20131;-87
2022/01/25 01:06:16;;;;;;;57.75;32.80;;;;;;;;;;5015576;28;20370;-86
2022/01/25 01:08:43;;;;;;;57.72;32.17;;;;;;;;;;5032379;28;20080;-86
2022/01/25 01:11:13;;;;;;;56.97;32.80;;;;;;;;;;5015337;28;20484;-86
2022/01/25 01:13:53;;;;;;;52.17;32.13;;;;;;;;;;5031804;28;20095;-87
2022/01/25 01:30:24;;;;;;;55.10;31.40;;;;;;;;;;5015089;28;20053;-86
2022/01/25 01:33:35;;;;;;;53.95;31.30;;;;;;;;;;5031300;28;20121;-87
2022/01/25 01:36:19;;;;;;;53.17;30.15;;;;;;;;;;5014771;28;20750;-88
2022/01/25 01:41:29;;;;;;;53.22;30.38;;;;;;;;;;5014835;28;20095;-86
2022/01/25 01:43:57;;;;;;;49.17;29.45;;;;;;;;;;5031316;28;20069;-86
2022/01/25 01:46:39;;;;;;;54.28;31.23;;;;;;;;;;5031249;28;20045;-86
2022/01/25 01:49:07;;;;;;;56.72;31.60;;;;;;;;;;5031461;28;20049;-92
2022/01/25 01:51:36;;;;;;;52.97;30.92;;;;;;;;;;5014775;28;20381;-87
2022/01/25 01:54:07;;;;;;;54.13;30.75;;;;;;;;;;5032821;28;20116;-87
2022/01/25 01:56:33;;;;;;;52.03;30.17;;;;;;;;;;5014897;28;20416;-86
2022/01/25 01:59:00;;;;;;;56.97;31.42;;;;;;;;;;5015084;28;20366;-86
2022/01/25 02:01:27;;;;;;;54.63;32.17;;;;;;;;;;5015040;28;20057;-87
2022/01/25 02:03:53;;;;;;;52.88;31.52;;;;;;;;;;5014732;28;20037;-86
2022/01/25 02:06:20;;;;;;;52.88;29.77;;;;;;;;;;5016130;28;20056;-86
2022/01/25 02:08:46;;;;;;;55.88;30.48;;;;;;;;;;5018742;28;20041;-86
2022/01/25 02:11:12;;;;;;;57.30;30.33;;;;;;;;;;5018429;28;20489;-87
2022/01/25 02:13:40;;;;;;;54.25;30.92;;;;;;;;;;5018652;28;20080;-87
2022/01/25 02:16:10;;;;;;;55.33;31.83;;;;;;;;;;5036698;28;20500;-87
2022/01/25 02:24:25;;;;;;;55.33;31.77;;;;;;;;;;4940083;29;20047;-86
2022/01/25 02:26:55;;;;;;;56.95;32.45;;;;;;;;;;4986564;28;20123;-85
2022/01/25 02:29:21;;;;;;;55.45;31.85;;;;;;;;;;5018691;28;20049;-87
2022/01/25 02:31:47;;;;;;;50.47;31.17;;;;;;;;;;5018017;28;20099;-87
2022/01/25 02:34:13;;;;;;;57.47;33.78;;;;;;;;;;5034764;28;20488;-87
2022/01/25 02:36:39;;;;;;;60.55;34.80;;;;;;;;;;5018433;28;20045;-86
2022/01/25 02:39:05;;;;;;;57.03;34.45;;;;;;;;;;5018312;28;20086;-87
2022/01/25 02:41:33;;;;;;;57.63;33.83;;;;;;;;;;5017861;28;20128;-87
2022/01/25 02:43:59;;;;;;;64.95;35.42;;;;;;;;;;5034453;28;20516;-87
2022/01/25 02:48:59;;;;;;;56.30;32.53;;;;;;;;;;5018106;28;20103;-87
2022/01/25 02:51:30;;;;;;;56.88;33.45;;;;;;;;;;5017982;28;20047;-86
2022/01/25 02:53:56;;;;;;;56.58;32.75;;;;;;;;;;5018127;28;20049;-86
2022/01/25 02:56:23;;;;;;;58.90;33.10;;;;;;;;;;5017768;28;20071;-87
2022/01/25 02:58:49;;;;;;;57.83;33.63;;;;;;;;;;5017877;28;20038;-87
2022/01/25 03:01:15;;;;;;;58.92;32.58;;;;;;;;;;5018038;28;20041;-86
2022/01/25 03:03:41;;;;;;;56.42;34.08;;;;;;;;;;5017486;28;20403;-88
2022/01/25 03:06:07;;;;;;;57.85;34.78;;;;;;;;;;5017962;28;20060;-88
2022/01/25 03:08:33;;;;;;;59.28;33.33;;;;;;;;;;5035469;28;20086;-86
2022/01/25 03:10:59;;;;;;;59.35;34.78;;;;;;;;;;5017539;28;20077;-86
2022/01/25 03:13:29;;;;;;;56.70;33.03;;;;;;;;;;5017311;28;20064;-86
2022/01/25 03:16:00;;;;;;;60.65;33.90;;;;;;;;;;5017594;28;20044;-87
2022/01/25 03:21:03;;;;;;;59.60;34.58;;;;;;;;;;5017610;28;20176;-86
2022/01/25 03:23:31;;;;;;;57.35;34.92;;;;;;;;;;5033619;28;20056;-88
2022/01/25 03:25:56;;;;;;;60.53;34.40;;;;;;;;;;5019080;28;20464;-87
2022/01/25 03:28:23;;;;;;;58.10;33.65;;;;;;;;;;5017283;28;20045;-86
2022/01/25 03:30:49;;;;;;;58.15;33.67;;;;;;;;;;5017364;28;20041;-87
2022/01/25 03:33:15;;;;;;;60.42;35.63;;;;;;;;;;5017014;28;20037;-86
2022/01/25 03:35:42;;;;;;;60.45;34.00;;;;;;;;;;5017101;28;20080;-87
2022/01/25 03:38:08;;;;;;;58.20;34.45;;;;;;;;;;5016980;28;20042;-87
2022/01/25 03:40:34;;;;;;;58.22;33.50;;;;;;;;;;5035110;28;20046;-86
2022/01/25 03:43:03;;;;;;;57.15;33.33;;;;;;;;;;5016638;28;20096;-87
2022/01/25 03:45:32;;;;;;;64.80;35.38;;;;;;;;;;5016894;28;20096;-87
2022/01/25 03:50:37;;;;;;;59.28;34.08;;;;;;;;;;5016788;28;20055;-86
2022/01/25 03:53:03;;;;;;;58.72;33.85;;;;;;;;;;5016829;28;20068;-87
2022/01/25 03:55:29;;;;;;;62.10;33.30;;;;;;;;;;5016910;28;20041;-87
2022/01/25 03:57:54;;;;;;;58.70;34.55;;;;;;;;;;5016611;28;20037;-87
2022/01/25 04:00:20;;;;;;;57.58;33.47;;;;;;;;;;5017155;28;20045;-87
2022/01/25 04:02:55;;;;;;;58.58;33.72;;;;;;;;;;5016663;28;20044;-87
2022/01/25 04:05:33;;;;;;;59.35;33.45;;;;;;;;;;5033462;28;20053;-87
2022/01/25 04:07:59;;;;;;;59.30;33.97;;;;;;;;;;5016473;28;20041;-86
2022/01/25 04:10:25;;;;;;;61.20;34.47;;;;;;;;;;5016447;28;20430;-87
2022/01/25 04:12:51;;;;;;;61.08;34.53;;;;;;;;;;5016520;28;20554;-86
2022/01/25 04:15:17;;;;;;;62.50;34.50;;;;;;;;;;5016335;28;20041;-86
2022/01/25 04:17:48;;;;;;;61.10;33.85;;;;;;;;;;5016234;28;20037;-86
2022/01/25 04:25:25;;;;;;;60.65;34.22;;;;;;;;;;5016214;28;20077;-87
2022/01/25 04:27:51;;;;;;;61.05;34.72;;;;;;;;;;5016047;28;20044;-87
2022/01/25 04:30:17;;;;;;;57.97;33.97;;;;;;;;;;5015388;28;20037;-87
2022/01/25 04:35:26;;;;;;;59.33;34.58;;;;;;;;;;5016061;28;20037;-86
2022/01/25 04:51:38;;;;;;;64.03;36.53;;;;;;;;;;5015829;28;20050;-87
2022/01/25 04:54:17;;;;;;;59.92;34.88;;;;;;;;;;5015784;28;20369;-87
2022/01/25 04:59:21;;;;;;;61.33;35.38;;;;;;;;;;5015372;28;20047;-87
2022/01/25 05:01:50;;;;;;;60.25;33.40;;;;;;;;;;5032458;28;20049;-87
2022/01/25 05:04:24;;;;;;;60.92;34.03;;;;;;;;;;5015543;28;20492;-86
2022/01/25 05:06:52;;;;;;;62.88;34.78;;;;;;;;;;5015690;28;20050;-87
2022/01/25 05:09:20;;;;;;;61.35;34.67;;;;;;;;;;5032042;28;20045;-86
2022/01/25 05:11:49;;;;;;;61.15;34.72;;;;;;;;;;5015389;28;20122;-86
2022/01/25 05:14:23;;;;;;;57.97;34.85;;;;;;;;;;5015108;28;20051;-86
2022/01/25 05:16:59;;;;;;;60.47;35.13;;;;;;;;;;5015743;28;20041;-87
2022/01/25 05:22:25;;;;;;;61.17;35.35;;;;;;;;;;4977259;28;20097;-87
2022/01/25 05:24:52;;;;;;;59.75;35.00;;;;;;;;;;5015784;28;20040;-86
2022/01/25 05:27:20;;;;;;;61.90;35.50;;;;;;;;;;5031690;28;20081;-87
2022/01/25 05:29:46;;;;;;;59.67;34.88;;;;;;;;;;5015207;28;20524;-86
2022/01/25 05:32:12;;;;;;;62.38;33.97;;;;;;;;;;5015041;28;20539;-87
2022/01/25 05:34:38;;;;;;;63.10;34.33;;;;;;;;;;5014891;28;20095;-86
2022/01/25 05:37:06;;;;;;;60.60;34.33;;;;;;;;;;5015041;28;20087;-87
2022/01/25 05:39:34;;;;;;;58.25;33.72;;;;;;;;;;5031576;28;20046;-86
2022/01/25 05:42:16;;;;;;;63.20;33.53;;;;;;;;;;5014414;28;20052;-87
2022/01/25 05:44:55;;;;;;;55.83;33.38;;;;;;;;;;5031322;28;20046;-86
2022/01/25 05:47:27;;;;;;;57.90;33.05;;;;;;;;;;5031553;28;20045;-86
2022/01/25 05:49:53;;;;;;;61.75;35.15;;;;;;;;;;5033919;28;20159;-87
2022/01/25 05:52:19;;;;;;;56.90;32.35;;;;;;;;;;5032756;28;20385;-86
2022/01/25 05:54:45;;;;;;;55.90;32.20;;;;;;;;;;5014755;28;20041;-87
2022/01/25 05:57:11;;;;;;;59.97;34.35;;;;;;;;;;5014843;28;20040;-86
2022/01/25 05:59:37;;;;;;;58.50;32.88;;;;;;;;;;5014609;28;20063;-87
2022/01/25 06:02:04;;;;;;;57.50;34.03;;;;;;;;;;5014861;28;20485;-87
2022/01/25 06:04:30;;;;;;;59.88;34.65;;;;;;;;;;5014839;28;20475;-86
2022/01/25 06:06:56;;;;;;;62.05;33.80;;;;;;;;;;5014802;28;20397;-86
2022/01/25 06:09:24;;;;;;;64.22;34.50;;;;;;;;;;5014608;28;20051;-87
2022/01/25 06:11:51;;;;;;;56.13;31.85;;;;;;;;;;5014756;28;20045;-87
2022/01/25 06:14:17;;;;;;;62.13;34.15;;;;;;;;;;5014631;28;20037;-86
2022/01/25 06:16:43;;;;;;;58.45;34.45;;;;;;;;;;5014825;28;20083;-86
2022/01/25 06:19:09;;;;;;;57.05;32.47;;;;;;;;;;5014563;28;20040;-87
2022/01/25 06:21:35;;;;;;;57.85;33.17;;;;;;;;;;5014809;28;20128;-88
2022/01/25 06:24:01;;;;;;;56.40;32.75;;;;;;;;;;5014422;28;20041;-86
2022/01/25 06:26:27;;;;;;;64.95;34.50;;;;;;;;;;5014990;28;20087;-87
2022/01/25 06:28:53;;;;;;;58.45;32.50;;;;;;;;;;5014745;28;20045;-87
2022/01/25 06:31:19;;;;;;;59.08;33.75;;;;;;;;;;5014759;28;20064;-87
2022/01/25 06:33:45;;;;;;;59.78;34.53;;;;;;;;;;5014349;28;20065;-86
2022/01/25 06:36:12;;;;;;;58.80;32.90;;;;;;;;;;5014594;28;20038;-87
2022/01/25 06:38:38;;;;;;;62.92;34.25;;;;;;;;;;5014621;28;20037;-87
2022/01/25 06:41:04;;;;;;;61.90;33.55;;;;;;;;;;5014552;28;20099;-87
2022/01/25 06:43:30;;;;;;;56.17;31.80;;;;;;;;;;5014114;28;20123;-86
2022/01/25 06:46:03;;;;;;;56.30;33.10;;;;;;;;;;5014623;28;20037;-86
2022/01/25 06:48:29;;;;;;;59.50;32.50;;;;;;;;;;5014836;28;20041;-87
2022/01/25 06:50:55;;;;;;;61.50;32.63;;;;;;;;;;5014242;28;20433;-86
2022/01/25 06:53:21;;;;;;;53.92;32.00;;;;;;;;;;5015787;28;20511;-87
2022/01/25 06:55:47;;;;;;;59.00;31.85;;;;;;;;;;5017879;28;20041;-87
2022/01/25 06:58:13;;;;;;;60.10;35.17;;;;;;;;;;5017969;28;20099;-86
2022/01/25 07:00:39;;;;;;;58.75;32.97;;;;;;;;;;5019755;28;20045;-87
2022/01/25 07:03:05;;;;;;;57.50;32.38;;;;;;;;;;5017714;28;20041;-86
2022/01/25 07:05:31;;;;;;;58.83;32.72;;;;;;;;;;5017620;28;20374;-87
2022/01/25 07:07:57;;;;;;;58.58;32.50;;;;;;;;;;5034177;28;20179;-87
2022/01/25 07:10:23;;;;;;;58.97;33.13;;;;;;;;;;5017470;28;20090;-86
2022/01/25 07:12:49;;;;;;;61.50;34.00;;;;;;;;;;5017608;28;20044;-88
2022/01/25 07:15:15;;;;;;;57.88;33.03;;;;;;;;;;5017406;28;20045;-86
2022/01/25 07:17:41;;;;;;;55.65;31.23;;;;;;;;;;5017573;28;20033;-86
2022/01/25 07:20:08;;;;;;;56.25;32.80;;;;;;;;;;5017199;28;20044;-87
2022/01/25 07:22:34;;;;;;;57.05;32.60;;;;;;;;;;5017365;28;20046;-86
2022/01/25 07:25:01;;;;;;;63.05;33.28;;;;;;;;;;5017122;28;20045;-87
2022/01/25 07:27:27;;;;;;;56.30;32.10;;;;;;;;;;5017293;28;20045;-87
2022/01/25 07:29:53;;;;;;;58.33;32.50;;;;;;;;;;5017099;28;20049;-86
2022/01/25 07:32:19;;;;;;;58.53;33.38;;;;;;;;;;5017148;28;20047;-86
2022/01/25 07:34:45;;;;;;;55.30;32.35;;;;;;;;;;5017070;28;20424;-87
2022/01/25 07:37:11;;;;;;;54.45;32.58;;;;;;;;;;5017294;28;20038;-86
2022/01/25 07:39:37;;;;;;;57.03;32.10;;;;;;;;;;5016873;28;20132;-86
2022/01/25 07:42:03;;;;;;;59.25;32.70;;;;;;;;;;5033254;28;20132;-87
2022/01/25 07:44:32;;;;;;;60.85;32.97;;;;;;;;;;5016002;28;20084;-88
2022/01/25 07:47:00;;;;;;;54.15;31.75;;;;;;;;;;5016467;28;20068;-88
2022/01/25 07:49:27;;;;;;;57.90;33.17;;;;;;;;;;5032528;28;20049;-87
2022/01/25 07:51:53;;;;;;;62.65;35.13;;;;;;;;;;5016465;28;20561;-88
2022/01/25 07:54:19;;;;;;;60.10;34.05;;;;;;;;;;5016099;28;20037;-88
2022/01/25 07:56:51;;;;;;;62.78;34.47;;;;;;;;;;5016204;28;20041;-89
2022/01/25 07:59:17;;;;;;;61.78;35.17;;;;;;;;;;5018210;28;20140;-92
2022/01/25 08:01:43;;;;;;;59.05;32.95;;;;;;;;;;5016490;28;20041;-88
2022/01/25 08:04:10;;;;;;;59.78;32.10;;;;;;;;;;5026968;28;20523;-87
2022/01/25 08:06:36;;;;;;;54.20;30.25;;;;;;;;;;5033531;28;20073;-84
2022/01/25 08:09:03;;;;;;;56.47;32.03;;;;;;;;;;5032979;28;20098;-86
2022/01/25 08:11:29;;;;;;;56.85;32.83;;;;;;;;;;5025558;28;20042;-87
2022/01/25 08:14:01;;;;;;;62.10;34.17;;;;;;;;;;5015842;28;20037;-89
2022/01/25 08:16:27;;;;;;;55.50;32.03;;;;;;;;;;5016030;28;20041;-88
2022/01/25 08:18:53;;;;;;;58.72;33.55;;;;;;;;;;5030163;28;20047;-88
2022/01/25 08:21:19;;;;;;;59.72;32.72;;;;;;;;;;5015567;28;20056;-88
2022/01/25 08:23:45;;;;;;;60.97;34.65;;;;;;;;;;5032492;28;20037;-88
2022/01/25 08:26:11;;;;;;;59.80;33.10;;;;;;;;;;5032098;28;20045;-87
2022/01/25 08:28:37;;;;;;;57.83;32.50;;;;;;;;;;5015807;28;20583;-88
2022/01/25 08:31:03;;;;;;;56.42;31.95;;;;;;;;;;5032058;28;20062;-88
2022/01/25 08:33:29;;;;;;;58.40;32.95;;;;;;;;;;5032028;28;20160;-88
2022/01/25 08:35:55;;;;;;;59.72;31.77;;;;;;;;;;5031837;28;20412;-89
2022/01/25 08:38:21;;;;;;;56.20;31.42;;;;;;;;;;5007202;28;20034;-88
2022/01/25 08:40:47;;;;;;;57.70;32.25;;;;;;;;;;5015326;28;20052;-88
2022/01/25 08:43:13;;;;;;;63.03;32.28;;;;;;;;;;5015347;28;20069;-88
2022/01/25 08:45:39;;;;;;;60.95;32.47;;;;;;;;;;5015246;28;20049;-88
2022/01/25 08:48:05;;;;;;;58.60;32.78;;;;;;;;;;5031320;28;20054;-88
2022/01/25 08:50:31;;;;;;;63.28;33.15;;;;;;;;;;5031389;28;20041;-89
2022/01/25 08:52:57;;;;;;;61.22;33.53;;;;;;;;;;5015379;28;20044;-88
2022/01/25 08:55:23;;;;;;;64.97;33.40;;;;;;;;;;5030927;28;20396;-87
2022/01/25 08:57:49;;;;;;;63.05;33.70;;;;;;;;;;5015079;28;20098;-92
2022/01/25 09:00:15;;;;;;;59.03;32.53;;;;;;;;;;5015706;28;20140;-89
2022/01/25 09:02:42;;;;;;;58.53;32.60;;;;;;;;;;5032401;28;20368;-93
2022/01/25 09:05:08;;;;;;;62.72;35.53;;;;;;;;;;5032365;28;20041;-88
2022/01/25 09:07:34;;;;;;;61.95;33.88;;;;;;;;;;5032010;28;20045;-90
2022/01/25 09:10:00;;;;;;;65.65;34.67;;;;;;;;;;5032431;28;20132;-88
2022/01/25 09:12:27;;;;;;;60.75;33.67;;;;;;;;;;5031791;28;20061;-89
2022/01/25 09:14:53;;;;;;;62.75;34.85;;;;;;;;;;5031996;28;20045;-90
2022/01/25 09:17:19;;;;;;;59.67;33.65;;;;;;;;;;5031122;28;20516;-88
2022/01/25 09:19:45;;;;;;;65.00;33.95;;;;;;;;;;5031758;28;20046;-88
2022/01/25 09:22:11;;;;;;;58.83;33.40;;;;;;;;;;5031672;28;20045;-90
2022/01/25 09:24:38;;;;;;;61.95;33.35;;;;;;;;;;5032311;28;20041;-88
2022/01/25 09:27:07;;;;;;;58.88;32.67;;;;;;;;;;5015369;28;20616;-89
2022/01/25 09:29:33;;;;;;;63.70;33.15;;;;;;;;;;5033301;28;20045;-88
2022/01/25 09:31:59;;;;;;;59.60;33.95;;;;;;;;;;5031941;28;20044;-88
2022/01/25 09:34:27;;;;;;;57.63;32.33;;;;;;;;;;5031529;28;20489;-89
2022/01/25 09:36:53;;;;;;;60.42;33.75;;;;;;;;;;5031482;28;20077;-90
2022/01/25 09:39:20;;;;;;;57.83;33.22;;;;;;;;;;5015269;28;20542;-89
2022/01/25 09:41:46;;;;;;;60.85;35.13;;;;;;;;;;5031609;28;20041;-88
2022/01/25 09:44:12;;;;;;;64.60;34.17;;;;;;;;;;5031390;28;20049;-88
2022/01/25 09:46:39;;;;;;;65.53;34.95;;;;;;;;;;5015327;28;20057;-91
2022/01/25 09:49:06;;;;;;;64.60;34.15;;;;;;;;;;5031766;28;20397;-92
2022/01/25 09:51:33;;;;;;;58.83;33.00;;;;;;;;;;5014830;28;20048;-91
2022/01/25 09:53:59;;;;;;;62.00;34.28;;;;;;;;;;5015811;28;20033;-90
2022/01/25 09:56:25;;;;;;;63.47;34.42;;;;;;;;;;5032489;28;20033;-91
2022/01/25 09:58:51;;;;;;;67.60;34.30;;;;;;;;;;5017012;28;20048;-91
2022/01/25 10:01:24;;;;;;;64.40;33.83;;;;;;;;;;5015183;28;20056;-91
2022/01/25 10:03:50;;;;;;;67.07;34.72;;;;;;;;;;5032358;28;20132;-90
2022/01/25 10:06:20;;;;;;;58.50;32.55;;;;;;;;;;5015050;28;20083;-90
2022/01/25 10:08:50;;;;;;;64.10;34.22;;;;;;;;;;5014603;28;20092;-90
2022/01/25 10:11:16;;;;;;;69.78;36.72;;;;;;;;;;5014586;28;20042;-89
2022/01/25 10:13:44;;;;;;;62.60;34.35;;;;;;;;;;5031810;28;20042;-90
2022/01/25 10:16:11;;;;;;;61.92;34.25;;;;;;;;;;5014647;28;20038;-90
2022/01/25 10:18:42;;;;;;;63.15;34.80;;;;;;;;;;5031561;28;20042;-90
2022/01/25 10:21:13;;;;;;;65.35;34.95;;;;;;;;;;5032179;28;20049;-92
2022/01/25 10:23:41;;;;;;;68.22;34.40;;;;;;;;;;5031395;28;20045;-91
2022/01/25 10:26:08;;;;;;;69.28;34.88;;;;;;;;;;5015160;28;20045;-89
2022/01/25 10:28:34;;;;;;;65.10;34.10;;;;;;;;;;5018785;28;20132;-89
2022/01/25 10:31:02;;;;;;;69.82;35.45;;;;;;;;;;5035157;28;20046;-91
2022/01/25 10:33:42;;;;;;;64.90;34.95;;;;;;;;;;5019432;28;20041;-92
2022/01/25 10:36:22;;;;;;;67.63;33.28;;;;;;;;;;5020014;28;20045;-91
2022/01/25 10:38:50;;;;;;;64.30;34.00;;;;;;;;;;5019256;28;20033;-93
2022/01/25 10:41:20;;;;;;;62.03;32.22;;;;;;;;;;5035449;28;20041;-91
2022/01/25 10:43:47;;;;;;;64.45;34.45;;;;;;;;;;5035038;28;20059;-92
2022/01/25 10:46:16;;;;;;;62.28;33.28;;;;;;;;;;5035165;28;20128;-91
2022/01/25 10:48:57;;;;;;;69.60;33.30;;;;;;;;;;5018648;28;20051;-90
2022/01/25 10:51:30;;;;;;;66.30;32.58;;;;;;;;;;5019154;28;20091;-92
2022/01/25 10:54:16;;;;;;;61.17;32.58;;;;;;;;;;5018936;28;20124;-92
2022/01/25 10:56:49;;;;;;;70.95;34.85;;;;;;;;;;5035212;28;20050;-91
2022/01/25 10:59:19;;;;;;;64.82;33.70;;;;;;;;;;5035819;28;20037;-91
2022/01/25 11:01:50;;;;;;;62.78;33.80;;;;;;;;;;5019139;28;20048;-93
2022/01/25 11:04:20;;;;;;;66.22;34.88;;;;;;;;;;5034052;28;20049;-94
2022/01/25 11:06:53;;;;;;;64.35;34.42;;;;;;;;;;5037862;28;20041;-92
2022/01/25 11:09:19;;;;;;;70.68;34.80;;;;;;;;;;5041567;28;20029;-93
2022/01/25 11:11:48;;;;;;;63.40;33.55;;;;;;;;;;5037487;28;20041;-92
2022/01/25 11:17:00;;;;;;;63.80;33.28;;;;;;;;;;5037589;28;20038;-91
2022/01/25 11:19:26;;;;;;;67.05;33.72;;;;;;;;;;5019937;28;20185;-92
2022/01/25 11:21:53;;;;;;;61.97;33.50;;;;;;;;;;5019081;28;20393;-91
2022/01/25 11:24:20;;;;;;;62.05;33.28;;;;;;;;;;5040841;28;20059;-94
2022/01/25 11:26:47;;;;;;;62.75;32.95;;;;;;;;;;5038017;28;20134;-91
2022/01/25 11:29:14;;;;;;;63.35;33.40;;;;;;;;;;5031963;28;20045;-91
2022/01/25 11:31:41;;;;;;;65.28;33.78;;;;;;;;;;5023487;28;20050;-89
2022/01/25 11:34:09;;;;;;;67.10;34.08;;;;;;;;;;5020162;28;20049;-90
2022/01/25 11:36:46;;;;;;;67.22;34.03;;;;;;;;;;5034337;28;20080;-90
2022/01/25 11:39:12;;;;;;;62.13;33.03;;;;;;;;;;5014742;28;20045;-90
2022/01/25 11:41:42;;;;;;;65.60;34.30;;;;;;;;;;5017720;28;20534;-92
2022/01/25 11:44:09;;;;;;;67.95;35.35;;;;;;;;;;5034098;28;20103;-93
2022/01/25 11:46:40;;;;;;;69.70;34.38;;;;;;;;;;5034267;28;20084;-92
2022/01/25 11:49:10;;;;;;;65.35;33.83;;;;;;;;;;5017566;28;20050;-91
2022/01/25 11:51:36;;;;;;;60.80;32.58;;;;;;;;;;5034505;28;20102;-92
2022/01/25 11:54:04;;;;;;;69.00;34.00;;;;;;;;;;5034492;28;20077;-93
2022/01/25 11:56:30;;;;;;;65.35;32.80;;;;;;;;;;5017783;28;20037;-91
2022/01/25 11:58:58;;;;;;;64.03;32.78;;;;;;;;;;5034361;28;20048;-92
2022/01/25 12:01:25;;;;;;;65.95;33.33;;;;;;;;;;5034346;28;20079;-92
2022/01/25 12:03:52;;;;;;;68.15;35.30;;;;;;;;;;5033862;28;20496;-92
2022/01/25 12:06:26;;;;;;;63.95;33.88;;;;;;;;;;5034167;28;20045;-93
2022/01/25 12:11:46;;;;;;;63.25;34.17;;;;;;;;;;5033866;28;20370;-92
2022/01/25 12:14:26;;;;;;;67.47;32.55;;;;;;;;;;5017487;28;20548;-91
2022/01/25 12:16:58;;;;;;;66.95;32.38;;;;;;;;;;5033659;28;20037;-92
2022/01/25 12:19:30;;;;;;;66.15;32.88;;;;;;;;;;5016867;28;20037;-91
2022/01/25 12:21:58;;;;;;;67.30;34.22;;;;;;;;;;5016777;28;20125;-91
2022/01/25 12:24:28;;;;;;;65.97;33.15;;;;;;;;;;5033451;28;20096;-91
2022/01/25 12:26:58;;;;;;;64.43;32.50;;;;;;;;;;5032650;28;20046;-92
2022/01/25 12:29:41;;;;;;;65.63;34.72;;;;;;;;;;5016741;28;20128;-91
2022/01/25 12:32:32;;;;;;;68.85;34.63;;;;;;;;;;5016763;28;20041;-92
2022/01/25 12:35:00;;;;;;;68.35;33.75;;;;;;;;;;5029025;28;20053;-89
2022/01/25 12:37:54;;;;;;;65.95;34.53;;;;;;;;;;5032624;28;20044;-92
2022/01/25 12:40:28;;;;;;;68.32;34.15;;;;;;;;;;5016832;28;20083;-92
2022/01/25 12:42:55;;;;;;;62.95;33.50;;;;;;;;;;5032686;28;20061;-90
2022/01/25 12:45:22;;;;;;;62.47;30.95;;;;;;;;;;5033061;28;20068;-92
2022/01/25 12:47:52;;;;;;;61.45;32.67;;;;;;;;;;5016122;28;20044;-92
2022/01/25 12:50:21;;;;;;;64.00;32.25;;;;;;;;;;5015733;28;20044;-94
2022/01/25 12:52:47;;;;;;;64.70;32.40;;;;;;;;;;5032581;28;20037;-90
2022/01/25 12:55:16;;;;;;;65.80;34.10;;;;;;;;;;5016697;28;20124;-90
2022/01/25 12:57:50;;;;;;;67.35;33.15;;;;;;;;;;5033081;28;20041;-91
2022/01/25 13:00:16;;;;;;;63.72;32.70;;;;;;;;;;5032909;28;20128;-84
2022/01/25 13:02:42;;;;;;;64.85;31.55;;;;;;;;;;5032948;28;20169;-92
2022/01/25 13:05:19;;;;;;;69.68;34.05;;;;;;;;;;5033893;28;20132;-92
2022/01/25 13:07:45;;;;;;;59.88;30.85;;;;;;;;;;5032669;28;20060;-92
2022/01/25 13:10:12;;;;;;;65.18;32.95;;;;;;;;;;5032831;28;20052;-93
2022/01/25 13:12:55;;;;;;;67.55;32.65;;;;;;;;;;5032546;28;20072;-90
2022/01/25 13:15:51;;;;;;;63.88;32.80;;;;;;;;;;5016034;28;20037;-92
2022/01/25 13:18:17;;;;;;;69.00;33.08;;;;;;;;;;5016270;28;20039;-93
2022/01/25 13:20:46;;;;;;;65.32;33.70;;;;;;;;;;5016346;28;20061;-94
2022/01/25 13:23:13;;;;;;;68.13;32.53;;;;;;;;;;5017634;28;20400;-90
2022/01/25 13:25:55;;;;;;;62.83;31.73;;;;;;;;;;5032792;28;20048;-91
2022/01/25 13:28:35;;;;;;;64.03;31.85;;;;;;;;;;5032543;28;20060;-91
2022/01/25 13:31:09;;;;;;;65.05;33.10;;;;;;;;;;5015968;28;20050;-92
2022/01/25 13:33:35;;;;;;;68.22;33.53;;;;;;;;;;5015747;28;20041;-91
2022/01/25 13:36:02;;;;;;;63.47;32.08;;;;;;;;;;5032217;28;20408;-93
2022/01/25 13:38:36;;;;;;;72.82;35.13;;;;;;;;;;5015582;28;20060;-92
2022/01/25 13:46:07;;;;;;;70.20;33.35;;;;;;;;;;5032572;28;20045;-90
2022/01/25 13:48:34;;;;;;;68.10;33.22;;;;;;;;;;5015338;28;20064;-92
2022/01/25 13:51:01;;;;;;;68.07;32.85;;;;;;;;;;5032283;28;20046;-91
2022/01/25 13:53:27;;;;;;;70.07;34.45;;;;;;;;;;5015456;28;20539;-92
2022/01/25 13:55:55;;;;;;;70.47;33.58;;;;;;;;;;5032073;28;20083;-93
2022/01/25 13:58:22;;;;;;;67.60;34.08;;;;;;;;;;5032823;28;20083;-92
2022/01/25 14:00:48;;;;;;;69.05;33.78;;;;;;;;;;5032534;28;20056;-92
2022/01/25 14:03:18;;;;;;;84.63;36.85;;;;;;;;;;5035590;28;20042;-92
2022/01/25 14:05:45;;;;;;;67.82;34.53;;;;;;;;;;5020622;28;20037;-92
2022/01/25 14:08:11;;;;;;;68.82;32.92;;;;;;;;;;5036421;28;20192;-91
2022/01/25 14:10:42;;;;;;;70.00;34.65;;;;;;;;;;5019647;28;20083;-94
2022/01/25 14:24:05;;;;;;;71.30;33.65;;;;;;;;;;5036222;28;20049;-92
2022/01/25 14:26:31;;;;;;;72.75;35.25;;;;;;;;;;5019693;28;20087;-92
2022/01/25 14:29:13;;;;;;;77.25;36.15;;;;;;;;;;5019392;28;20131;-92
2022/01/25 14:31:41;;;;;;;73.53;34.95;;;;;;;;;;5019562;28;20041;-93
2022/01/25 14:34:09;;;;;;;72.45;34.70;;;;;;;;;;5019122;28;20504;-93
2022/01/25 14:36:35;;;;;;;70.03;34.25;;;;;;;;;;5017946;28;20080;-92
2022/01/25 14:39:02;;;;;;;65.30;33.78;;;;;;;;;;5019778;28;20072;-94
2022/01/25 14:41:31;;;;;;;76.45;36.58;;;;;;;;;;5003145;28;20048;-92
2022/01/25 14:44:11;;;;;;;74.68;34.85;;;;;;;;;;4999526;28;20108;-93
2022/01/25 14:46:40;;;;;;;71.55;34.75;;;;;;;;;;5016536;28;20037;-93
2022/01/25 14:49:08;;;;;;;65.95;35.00;;;;;;;;;;5002974;28;20064;-90
2022/01/25 14:51:39;;;;;;;74.32;36.22;;;;;;;;;;5016248;28;20048;-92
2022/01/25 14:54:10;;;;;;;72.47;35.22;;;;;;;;;;5009004;28;20045;-92
2022/01/25 14:56:37;;;;;;;72.43;35.70;;;;;;;;;;5011371;28;20042;-94
2022/01/25 14:59:24;;;;;;;70.95;35.58;;;;;;;;;;5016295;28;20073;-95
2022/01/25 15:01:50;;;;;;;70.63;32.45;;;;;;;;;;4999691;28;20133;-93
2022/01/25 15:04:16;;;;;;;68.30;32.92;;;;;;;;;;4999543;28;20044;-94
2022/01/25 15:06:43;;;;;;;65.03;33.55;;;;;;;;;;5015946;28;20410;-93
2022/01/25 15:09:09;;;;;;;63.53;33.70;;;;;;;;;;4999109;28;20042;-92
2022/01/25 15:11:43;;;;;;;62.17;32.33;;;;;;;;;;5001082;28;20041;-93
2022/01/25 15:14:20;;;;;;;66.50;33.67;;;;;;;;;;5015914;28;20382;-92
2022/01/25 15:16:46;;;;;;;66.05;32.60;;;;;;;;;;5001672;28;20300;-93
2022/01/25 15:19:19;;;;;;;68.63;32.85;;;;;;;;;;5018431;28;20038;-91
2022/01/25 15:21:49;;;;;;;67.30;32.85;;;;;;;;;;5003408;28;20045;-93
2022/01/25 15:24:16;;;;;;;71.25;35.72;;;;;;;;;;5006459;28;20053;-91
2022/01/25 15:26:45;;;;;;;63.47;31.92;;;;;;;;;;5028890;28;20045;-93
2022/01/25 15:29:17;;;;;;;67.28;33.25;;;;;;;;;;4999722;28;20095;-92
2022/01/25 15:31:43;;;;;;;67.07;33.90;;;;;;;;;;4999509;28;20061;-93
2022/01/25 15:34:09;;;;;;;62.75;32.30;;;;;;;;;;5016692;28;20081;-93
2022/01/25 15:36:39;;;;;;;69.53;33.22;;;;;;;;;;5021732;28;20046;-93
2022/01/25 15:39:05;;;;;;;74.13;34.78;;;;;;;;;;5020786;28;20038;-94
2022/01/25 15:41:34;;;;;;;67.85;33.28;;;;;;;;;;5016745;28;20559;-94
2022/01/25 15:44:01;;;;;;;66.88;33.25;;;;;;;;;;5017692;28;20072;-94
2022/01/25 15:46:34;;;;;;;67.97;32.97;;;;;;;;;;5000934;28;20057;-94
2022/01/25 15:49:01;;;;;;;65.35;33.33;;;;;;;;;;5016442;28;20448;-93
2022/01/25 15:51:27;;;;;;;63.22;32.15;;;;;;;;;;5016991;28;20046;-94
2022/01/25 15:53:55;;;;;;;65.00;33.92;;;;;;;;;;4999371;28;20038;-94
2022/01/25 15:56:21;;;;;;;67.88;34.22;;;;;;;;;;4998649;28;20049;-94
2022/01/25 15:58:47;;;;;;;72.03;33.15;;;;;;;;;;4999354;28;20069;-94
2022/01/25 16:01:14;;;;;;;71.45;35.03;;;;;;;;;;5020202;28;20049;-93
2022/01/25 16:03:43;;;;;;;76.53;34.63;;;;;;;;;;5018424;28;20097;-92
2022/01/25 16:06:12;;;;;;;73.97;34.72;;;;;;;;;;4999480;28;20045;-93
2022/01/25 16:08:48;;;;;;;67.80;35.10;;;;;;;;;;5017049;28;20045;-95
2022/01/25 16:11:14;;;;;;;72.78;36.00;;;;;;;;;;4998077;28;20048;-92